Time;durP1;ratioP1;P1;durP2;ratioP2;P2;SDS_P1;SDS_P2;PMS_P1;PMS_P2;Temp;Humidity;BMP_temperature;BMP_pressure;BME280_temperature;BME280_humidity;BME280_pressure;Samples;Min_cycle;Max_cycle;Signal;HPM_P1;HPM_P2
2023/05/09 00:00:03;;;;;;;;;;;;;;;12.77;100.00;96761.09;4982504;28;20008;-74
2023/05/09 00:02:29;;;;;;;;;;;;;;;12.78;100.00;96759.28;4981900;28;20252;-73
2023/05/09 00:04:55;;;;;;;;;;;;;;;12.77;100.00;96755.84;4981903;28;19950;-72
2023/05/09 00:07:21;;;;;;;;;;;;;;;12.78;100.00;96759.28;4981948;28;19971;-72
2023/05/09 00:09:47;;;;;;;;;;;;;;;12.79;100.00;96756.44;4982644;28;20241;-71
2023/05/09 00:12:13;;;;;;;;;;;;;;;12.79;100.00;96759.06;4982325;28;20031;-70
2023/05/09 00:14:39;;;;;;;;;;;;;;;12.80;100.00;96754.59;4982291;28;19966;-70
2023/05/09 00:17:06;;;;;;;;;;;;;;;12.80;100.00;96759.84;4982299;28;19972;-74
2023/05/09 00:19:32;;;;;;;;;;;;;;;12.82;100.00;96762.28;4982039;28;20250;-69
2023/05/09 00:21:58;;;;;;;;;;;;;;;12.84;100.00;96749.69;4984217;28;19970;-69
2023/05/09 00:24:24;;;;;;;;;;;;;;;12.84;100.00;96745.22;4985443;28;20007;-69
2023/05/09 00:26:50;;;;;;;;;;;;;;;12.86;100.00;96750.28;4985485;28;19969;-69
2023/05/09 00:29:15;;;;;;;;;;;;;;;12.86;100.00;96745.00;4985551;28;19958;-69
2023/05/09 00:31:41;;;;;;;;;;;;;;;12.86;100.00;96748.44;4985503;28;19983;-69
2023/05/09 00:34:07;;;;;;;;;;;;;;;12.83;100.00;96748.06;4985376;28;20236;-70
2023/05/09 00:36:33;;;;;;;;;;;;;;;12.78;100.00;96744.28;4984935;28;19947;-73
2023/05/09 00:38:59;;;;;;;;;;;;;;;12.78;100.00;96735.59;4985647;28;20108;-71
2023/05/09 00:41:25;;;;;;;;;;;;;;;12.80;100.00;96736.16;4984822;28;20155;-71
2023/05/09 00:43:51;;;;;;;;;;;;;;;12.82;100.00;96744.63;4984980;28;19963;-72
2023/05/09 00:46:16;;;;;;;;;;;;;;;12.85;100.00;96738.94;4985421;28;20270;-71
2023/05/09 00:48:42;;;;;;;;;;;;;;;12.88;100.00;96732.41;4985330;28;19967;-71
2023/05/09 00:51:08;;;;;;;;;;;;;;;12.90;100.00;96727.72;4984666;28;19955;-71
2023/05/09 00:53:34;;;;;;;;;;;;;;;12.92;100.00;96733.56;4984920;28;19964;-79
2023/05/09 00:56:00;;;;;;;;;;;;;;;12.93;100.00;96735.16;4985221;28;20105;-71
2023/05/09 00:58:27;;;;;;;;;;;;;;;12.94;100.00;96726.25;4985029;28;20148;-72
2023/05/09 01:00:52;;;;;;;;;;;;;;;12.98;100.00;96730.84;4984959;28;19961;-72
2023/05/09 01:03:18;;;;;;;;;;;;;;;12.98;100.00;96733.47;4984986;28;19960;-71
2023/05/09 01:06:04;;;;;;;;;;;;;;;13.01;100.00;96726.94;4985177;28;19979;-72
2023/05/09 01:08:41;;;;;;;;;;;;;;;12.95;100.00;96719.94;4984799;28;19963;-72
2023/05/09 01:11:20;;;;;;;;;;;;;;;13.07;100.00;96719.97;4984358;28;19959;-76
2023/05/09 01:14:05;;;;;;;;;;;;;;;13.12;100.00;96712.19;4984710;28;19971;-70
2023/05/09 01:16:37;;;;;;;;;;;;;;;13.13;100.00;96716.44;4984694;28;19962;-74
2023/05/09 01:19:22;;;;;;;;;;;;;;;13.10;100.00;96714.25;4984834;28;19961;-75
2023/05/09 01:21:48;;;;;;;;;;;;;;;13.02;100.00;96711.94;4984838;28;19970;-74
2023/05/09 01:24:29;;;;;;;;;;;;;;;12.90;100.00;96712.72;4984303;28;19959;-75
2023/05/09 01:27:04;;;;;;;;;;;;;;;12.86;100.00;96705.53;4984364;28;20262;-75
2023/05/09 01:29:32;;;;;;;;;;;;;;;12.82;100.00;96701.72;4984809;28;19957;-73
2023/05/09 01:32:01;;;;;;;;;;;;;;;12.78;100.00;96698.75;4983963;28;19962;-68
2023/05/09 01:34:29;;;;;;;;;;;;;;;12.73;100.00;96690.72;4984435;28;19953;-81
2023/05/09 01:36:57;;;;;;;;;;;;;;;12.72;100.00;96699.63;4984510;28;20132;-82
2023/05/09 01:39:24;;;;;;;;;;;;;;;12.75;100.00;96694.75;4984606;28;19951;-82
2023/05/09 01:41:52;;;;;;;;;;;;;;;12.79;100.00;96695.91;4984003;28;20481;-78
2023/05/09 01:44:20;;;;;;;;;;;;;;;12.85;100.00;96694.19;4984061;28;19958;-79
2023/05/09 01:46:46;;;;;;;;;;;;;;;12.88;100.00;96696.38;4984816;28;20134;-82
2023/05/09 01:49:12;;;;;;;;;;;;;;;12.91;100.00;96695.91;4984340;28;19959;-72
2023/05/09 01:51:38;;;;;;;;;;;;;;;12.93;100.00;96693.03;4983984;28;19984;-73
2023/05/09 01:54:04;;;;;;;;;;;;;;;12.93;100.00;96698.31;4984390;28;20256;-72
2023/05/09 01:56:30;;;;;;;;;;;;;;;12.91;100.00;96693.25;4984034;28;19963;-72
2023/05/09 01:58:57;;;;;;;;;;;;;;;12.90;100.00;96694.31;4984010;28;19961;-73
2023/05/09 02:01:23;;;;;;;;;;;;;;;12.93;100.00;96688.56;4983974;28;19969;-72
2023/05/09 02:03:51;;;;;;;;;;;;;;;12.94;100.00;96690.19;4984130;28;19978;-76
2023/05/09 02:06:19;;;;;;;;;;;;;;;12.91;100.00;96688.00;4984002;28;19959;-70
2023/05/09 02:08:45;;;;;;;;;;;;;;;12.89;100.00;96686.63;4983449;28;19942;-69
2023/05/09 02:11:11;;;;;;;;;;;;;;;12.85;100.00;96686.31;4984006;28;20302;-69
2023/05/09 02:13:37;;;;;;;;;;;;;;;12.84;100.00;96687.31;4983545;28;19955;-69
2023/05/09 02:16:04;;;;;;;;;;;;;;;12.85;100.00;96685.47;4983816;28;19959;-69
2023/05/09 02:18:31;;;;;;;;;;;;;;;12.86;100.00;96680.00;4983587;28;19971;-69
2023/05/09 02:20:57;;;;;;;;;;;;;;;12.86;100.00;96682.63;4983533;28;20251;-69
2023/05/09 02:23:23;;;;;;;;;;;;;;;12.86;100.00;96689.72;4983788;28;19956;-70
2023/05/09 02:25:49;;;;;;;;;;;;;;;12.86;100.00;96687.88;4983646;28;19956;-73
2023/05/09 02:28:17;;;;;;;;;;;;;;;12.85;100.00;96686.31;4983707;28;19961;-75
2023/05/09 02:30:44;;;;;;;;;;;;;;;12.85;100.00;96681.03;4983612;28;20136;-75
2023/05/09 02:33:11;;;;;;;;;;;;;;;12.86;100.00;96690.53;4983710;28;19960;-77
2023/05/09 02:35:38;;;;;;;;;;;;;;;12.87;100.00;96683.44;4983553;28;19974;-77
2023/05/09 02:38:05;;;;;;;;;;;;;;;12.87;100.00;96676.34;4983309;28;19948;-77
2023/05/09 02:40:32;;;;;;;;;;;;;;;12.86;100.00;96669.47;5050346;28;20230;-74
2023/05/09 02:42:58;;;;;;;;;;;;;;;12.81;100.00;96666.72;4982308;28;19962;-74
2023/05/09 02:45:24;;;;;;;;;;;;;;;12.75;100.00;96657.09;4982986;28;19959;-68
2023/05/09 02:47:50;;;;;;;;;;;;;;;12.72;100.00;96663.59;4983129;28;20105;-67
2023/05/09 02:50:16;;;;;;;;;;;;;;;12.71;100.00;96661.22;4983160;28;19963;-68
2023/05/09 02:52:42;;;;;;;;;;;;;;;12.70;100.00;96665.66;4983136;28;19956;-69
2023/05/09 02:55:08;;;;;;;;;;;;;;;12.73;100.00;96653.91;4983161;28;19994;-68
2023/05/09 02:57:34;;;;;;;;;;;;;;;12.75;100.00;96654.47;4983125;28;20264;-68
2023/05/09 03:00:00;;;;;;;;;;;;;;;12.72;100.00;96663.59;4982858;28;20264;-67
2023/05/09 03:02:26;;;;;;;;;;;;;;;12.67;100.00;96660.84;4983194;28;20018;-70
2023/05/09 03:04:52;;;;;;;;;;;;;;;12.66;100.00;96659.25;4983198;28;19955;-73
2023/05/09 03:07:17;;;;;;;;;;;;;;;12.68;100.00;96662.47;4983162;28;19994;-74
2023/05/09 03:09:43;;;;;;;;;;;;;;;12.73;100.00;96661.78;4982725;28;19960;-73
2023/05/09 03:12:09;;;;;;;;;;;;;;;12.78;100.00;96659.25;4982734;28;19954;-73
2023/05/09 03:14:35;;;;;;;;;;;;;;;12.80;100.00;96647.47;4982682;28;19965;-73
2023/05/09 03:17:01;;;;;;;;;;;;;;;12.82;100.00;96652.53;4983110;28;20255;-72
2023/05/09 03:19:27;;;;;;;;;;;;;;;12.84;100.00;96649.66;4983119;28;20029;-73
2023/05/09 03:21:53;;;;;;;;;;;;;;;12.81;100.00;96656.19;4982789;28;20307;-78
2023/05/09 03:24:19;;;;;;;;;;;;;;;12.82;100.00;96646.47;4982706;28;19961;-72
2023/05/09 03:26:44;;;;;;;;;;;;;;;12.82;100.00;96652.53;4982921;28;20014;-73
2023/05/09 03:29:10;;;;;;;;;;;;;;;12.84;100.00;96650.47;4982397;28;19965;-73
2023/05/09 03:31:36;;;;;;;;;;;;;;;12.84;100.00;96642.56;5049460;28;20266;-73
2023/05/09 03:34:02;;;;;;;;;;;;;;;12.83;100.00;96640.97;4982803;28;19961;-73
2023/05/09 03:36:28;;;;;;;;;;;;;;;12.77;100.00;96642.69;4982248;28;20014;-73
2023/05/09 03:38:54;;;;;;;;;;;;;;;12.74;100.00;96647.59;4983034;28;19963;-70
2023/05/09 03:41:20;;;;;;;;;;;;;;;12.75;100.00;96641.31;4982276;28;19970;-71
2023/05/09 03:43:46;;;;;;;;;;;;;;;12.75;100.00;96638.69;4982301;28;19961;-73
2023/05/09 03:46:11;;;;;;;;;;;;;;;12.72;100.00;96632.03;4982817;28;19962;-73
2023/05/09 03:48:37;;;;;;;;;;;;;;;12.70;100.00;96628.81;4982793;28;19965;-73
2023/05/09 03:51:03;;;;;;;;;;;;;;;12.64;100.00;96632.38;4982371;28;19951;-73
2023/05/09 03:53:29;;;;;;;;;;;;;;;12.61;100.00;96630.19;4982388;28;19964;-73
2023/05/09 03:55:55;;;;;;;;;;;;;;;12.59;100.00;96629.59;4985241;28;19950;-72
2023/05/09 03:58:21;;;;;;;;;;;;;;;12.56;100.00;96625.59;4985527;28;20003;-76
2023/05/09 04:00:46;;;;;;;;;;;;;;;12.56;100.00;96635.31;4985825;28;20188;-71
2023/05/09 04:03:12;;;;;;;;;;;;;;;12.58;100.00;96635.91;5052983;28;20002;-70
2023/05/09 04:05:39;;;;;;;;;;;;;;;12.57;100.00;96626.41;4985811;28;19967;-71
2023/05/09 04:08:05;;;;;;;;;;;;;;;12.54;100.00;96625.03;4985406;28;19941;-71
2023/05/09 04:10:31;;;;;;;;;;;;;;;12.51;100.00;96628.09;4985830;28;20239;-71
2023/05/09 04:12:57;;;;;;;;;;;;;;;12.51;100.00;96622.81;4985355;28;19950;-71
2023/05/09 04:15:23;;;;;;;;;;;;;;;12.53;100.00;96631.28;4985337;28;19961;-72
2023/05/09 04:17:49;;;;;;;;;;;;;;;12.53;100.00;96622.59;4985186;28;20221;-71
2023/05/09 04:20:15;;;;;;;;;;;;;;;12.55;100.00;96629.25;4985383;28;19970;-81
2023/05/09 04:22:40;;;;;;;;;;;;;;;12.52;100.00;96626.28;4985361;28;19967;-80
2023/05/09 04:25:11;;;;;;;;;;;;;;;12.47;100.00;96624.31;4985621;28;20027;-80
2023/05/09 04:27:37;;;;;;;;;;;;;;;12.46;100.00;96619.28;4986149;28;20146;-80
2023/05/09 04:30:03;;;;;;;;;;;;;;;12.45;100.00;96625.56;4985631;28;19955;-80
2023/05/09 04:32:29;;;;;;;;;;;;;;;12.48;100.00;96630.38;4985483;28;19976;-80
2023/05/09 04:34:55;;;;;;;;;;;;;;;12.50;100.00;96626.50;5052748;28;20154;-77
2023/05/09 04:37:21;;;;;;;;;;;;;;;12.54;100.00;96630.28;5052288;28;19945;-70
2023/05/09 04:39:47;;;;;;;;;;;;;;;12.58;100.00;96628.00;4985380;28;20137;-70
2023/05/09 04:42:13;;;;;;;;;;;;;;;12.63;100.00;96628.13;4985314;28;19968;-70
2023/05/09 04:44:39;;;;;;;;;;;;;;;12.67;100.00;96620.59;4985056;28;19967;-70
2023/05/09 04:47:05;;;;;;;;;;;;;;;12.64;100.00;96621.84;4984707;28;19963;-70
2023/05/09 04:49:31;;;;;;;;;;;;;;;12.63;100.00;96616.81;4984989;28;20122;-70
2023/05/09 04:51:57;;;;;;;;;;;;;;;12.67;100.00;96621.38;4985349;28;20024;-66
2023/05/09 04:54:22;;;;;;;;;;;;;;;12.72;100.00;96620.69;4985068;28;19956;-81
2023/05/09 04:56:48;;;;;;;;;;;;;;;12.76;100.00;96613.94;4985184;28;19956;-71
2023/05/09 04:59:14;;;;;;;;;;;;;;;12.78;100.00;96615.31;4985046;28;19999;-71
2023/05/09 05:01:40;;;;;;;;;;;;;;;12.80;100.00;96618.53;4984979;28;20327;-71
2023/05/09 05:04:06;;;;;;;;;;;;;;;12.84;100.00;96612.81;4985010;28;19958;-71
2023/05/09 05:06:32;;;;;;;;;;;;;;;12.86;100.00;96616.81;4983572;28;19947;-70
2023/05/09 05:08:58;;;;;;;;;;;;;;;12.84;100.00;96612.81;4984525;28;19965;-71
2023/05/09 05:11:23;;;;;;;;;;;;;;;12.86;100.00;96610.78;4984861;28;19977;-69
2023/05/09 05:13:49;;;;;;;;;;;;;;;12.88;100.00;96624.50;4985062;28;19962;-66
2023/05/09 05:16:15;;;;;;;;;;;;;;;12.89;100.00;96620.81;4984820;28;20214;-67
2023/05/09 05:18:41;;;;;;;;;;;;;;;12.91;100.00;96626.66;4984558;28;19965;-67
2023/05/09 05:21:07;;;;;;;;;;;;;;;12.93;100.00;96616.72;4984673;28;20004;-66
2023/05/09 05:23:33;;;;;;;;;;;;;;;12.95;100.00;96619.91;4984550;28;19961;-67
2023/05/09 05:25:59;;;;;;;;;;;;;;;12.98;100.00;96611.59;4984584;28;19954;-67
2023/05/09 05:28:25;;;;;;;;;;;;;;;12.96;100.00;96609.16;4984756;28;20236;-67
2023/05/09 05:30:50;;;;;;;;;;;;;;;12.91;100.00;96616.13;4984902;28;20227;-78
2023/05/09 05:33:16;;;;;;;;;;;;;;;12.89;100.00;96624.28;4984676;28;20102;-68
2023/05/09 05:35:42;;;;;;;;;;;;;;;12.89;100.00;96616.38;5051253;28;19957;-68
2023/05/09 05:38:08;;;;;;;;;;;;;;;12.91;100.00;96614.31;4984078;28;19965;-70
2023/05/09 05:40:34;;;;;;;;;;;;;;;12.93;100.00;96609.59;4984026;28;19953;-69
2023/05/09 05:43:00;;;;;;;;;;;;;;;12.96;100.00;96609.16;4983988;28;19961;-69
2023/05/09 05:45:26;;;;;;;;;;;;;;;12.93;100.00;96606.19;4983829;28;19956;-69
2023/05/09 05:47:52;;;;;;;;;;;;;;;12.92;100.00;96615.13;4984544;28;19987;-79
2023/05/09 05:50:17;;;;;;;;;;;;;;;12.95;100.00;96614.66;4984096;28;20277;-67
2023/05/09 05:52:43;;;;;;;;;;;;;;;12.96;100.00;96611.81;4984080;28;19954;-70
2023/05/09 05:55:09;;;;;;;;;;;;;;;12.93;100.00;96612.25;4984022;28;20287;-71
2023/05/09 05:57:36;;;;;;;;;;;;;;;12.91;100.00;96613.50;4984106;28;20243;-70
2023/05/09 06:00:05;;;;;;;;;;;;;;;12.87;100.00;96604.47;4984089;28;20237;-70
2023/05/09 06:02:31;;;;;;;;;;;;;;;12.87;100.00;96601.81;4984012;28;19962;-70
2023/05/09 06:04:56;;;;;;;;;;;;;;;12.86;100.00;96595.78;4984074;28;20136;-70
2023/05/09 06:07:22;;;;;;;;;;;;;;;12.85;100.00;96590.72;4984100;28;19940;-72
2023/05/09 06:09:48;;;;;;;;;;;;;;;12.85;100.00;96591.56;4983999;28;19961;-82
2023/05/09 06:12:15;;;;;;;;;;;;;;;12.89;100.00;96591.88;4983967;28;19957;-80
2023/05/09 06:14:41;;;;;;;;;;;;;;;12.92;100.00;96589.59;4983720;28;19959;-81
2023/05/09 06:17:07;;;;;;;;;;;;;;;12.99;100.00;96589.47;4983453;28;20276;-81
2023/05/09 06:19:33;;;;;;;;;;;;;;;13.00;100.00;96575.28;4983733;28;19963;-80
2023/05/09 06:21:59;;;;;;;;;;;;;;;13.02;100.00;96583.78;4983585;28;19963;-81
2023/05/09 06:24:25;;;;;;;;;;;;;;;13.08;100.00;96584.66;4983658;28;20076;-67
2023/05/09 06:26:51;;;;;;;;;;;;;;;13.11;100.00;96587.63;4983678;28;19954;-69
2023/05/09 06:29:17;;;;;;;;;;;;;;;13.31;100.00;96583.88;4983625;28;20191;-79
2023/05/09 06:31:43;;;;;;;;;;;;;;;13.59;100.00;96586.56;4983679;28;20160;-77
2023/05/09 06:34:09;;;;;;;;;;;;;;;13.82;100.00;96582.25;4983882;28;20169;-78
2023/05/09 06:36:35;;;;;;;;;;;;;;;13.91;100.00;96580.06;4983485;28;20250;-79
2023/05/09 06:39:00;;;;;;;;;;;;;;;13.86;100.00;96567.59;4983177;28;19966;-79
2023/05/09 06:41:26;;;;;;;;;;;;;;;13.77;100.00;96572.44;4982932;28;20221;-79
2023/05/09 06:43:52;;;;;;;;;;;;;;;13.72;100.00;96571.53;4983701;28;19963;-72
2023/05/09 06:46:18;;;;;;;;;;;;;;;13.72;100.00;96574.94;4983432;28;19953;-81
2023/05/09 06:48:44;;;;;;;;;;;;;;;13.72;100.00;96574.16;4983111;28;19996;-81
2023/05/09 06:51:10;;;;;;;;;;;;;;;13.67;100.00;96564.31;4983062;28;19978;-81
2023/05/09 06:53:36;;;;;;;;;;;;;;;13.65;100.00;96560.31;4983107;28;19964;-82
2023/05/09 06:56:03;;;;;;;;;;;;;;;13.67;100.00;96548.50;4983174;28;19964;-82
2023/05/09 06:58:28;;;;;;;;;;;;;;;13.71;100.00;96551.47;4983137;28;19969;-82
2023/05/09 07:00:54;;;;;;;;;;;;;;;13.74;100.00;96549.16;4983200;28;19957;-74
2023/05/09 07:03:20;;;;;;;;;;;;;;;13.70;100.00;96547.25;4983141;28;20247;-68
2023/05/09 07:05:46;;;;;;;;;;;;;;;13.74;100.00;96543.09;4982585;28;19957;-73
2023/05/09 07:08:12;;;;;;;;;;;;;;;13.83;100.00;96543.50;4983071;28;20004;-73
2023/05/09 07:10:38;;;;;;;;;;;;;;;13.85;100.00;96544.88;4982653;28;19962;-73
2023/05/09 07:13:04;;;;;;;;;;;;;;;13.85;100.00;96541.44;4982420;28;20024;-73
2023/05/09 07:15:30;;;;;;;;;;;;;;;13.86;100.00;96543.84;4982701;28;20222;-74
2023/05/09 07:17:56;;;;;;;;;;;;;;;13.98;100.00;96535.88;4983017;28;19962;-73
2023/05/09 07:20:22;;;;;;;;;;;;;;;14.12;100.00;96539.03;4982974;28;19957;-72
2023/05/09 07:22:47;;;;;;;;;;;;;;;14.14;100.00;96526.41;4982676;28;20170;-71
2023/05/09 07:25:13;;;;;;;;;;;;;;;14.15;100.00;96522.72;4982892;28;20116;-73
2023/05/09 07:27:39;;;;;;;;;;;;;;;14.22;100.00;96510.19;4982693;28;20007;-72
2023/05/09 07:30:05;;;;;;;;;;;;;;;14.37;100.00;96515.69;4982360;28;19956;-73
2023/05/09 07:32:31;;;;;;;;;;;;;;;14.66;100.00;96509.53;4982784;28;19967;-72
2023/05/09 07:34:57;;;;;;;;;;;;;;;14.89;100.00;96509.38;4982749;28;19961;-72
2023/05/09 07:37:23;;;;;;;;;;;;;;;14.98;100.00;96507.09;5050113;28;20016;-74
2023/05/09 07:39:50;;;;;;;;;;;;;;;15.08;100.00;96503.81;4982361;28;20074;-76
2023/05/09 07:42:15;;;;;;;;;;;;;;;15.21;100.00;96504.22;4982138;28;20149;-72
2023/05/09 07:44:41;;;;;;;;;;;;;;;15.18;100.00;96496.78;4982333;28;19958;-73
2023/05/09 07:47:08;;;;;;;;;;;;;;;15.10;100.00;96489.31;4982255;28;19961;-72
2023/05/09 07:49:34;;;;;;;;;;;;;;;15.02;100.00;96490.50;4982353;28;20117;-72
2023/05/09 07:52:00;;;;;;;;;;;;;;;14.88;100.00;96496.41;4982282;28;19965;-73
2023/05/09 07:54:25;;;;;;;;;;;;;;;14.84;100.00;96482.09;4982430;28;19960;-73
2023/05/09 07:56:52;;;;;;;;;;;;;;;14.84;100.00;96484.72;4982545;28;19960;-82
2023/05/09 07:59:18;;;;;;;;;;;;;;;14.87;100.00;96479.75;4982426;28;19970;-81
2023/05/09 08:01:44;;;;;;;;;;;;;;;14.89;100.00;96476.84;4982410;28;20160;-81
2023/05/09 08:04:10;;;;;;;;;;;;;;;14.90;100.00;96473.19;4982363;28;19958;-81
2023/05/09 08:06:36;;;;;;;;;;;;;;;14.89;100.00;96472.41;4981893;28;19943;-81
2023/05/09 08:09:02;;;;;;;;;;;;;;;14.88;100.00;96462.88;4982600;28;19978;-82
2023/05/09 08:11:27;;;;;;;;;;;;;;;14.94;100.00;96469.00;4981802;28;20253;-83
2023/05/09 08:13:53;;;;;;;;;;;;;;;14.94;100.00;96466.38;4981899;28;19966;-83
2023/05/09 08:16:19;;;;;;;;;;;;;;;14.91;100.00;96461.56;4982482;28;19998;-70
2023/05/09 08:18:45;;;;;;;;;;;;;;;14.89;100.00;96461.84;4981898;28;20014;-68
2023/05/09 08:21:11;;;;;;;;;;;;;;;14.95;100.00;96462.69;4982313;28;19956;-69
2023/05/09 08:23:37;;;;;;;;;;;;;;;15.01;100.00;96457.25;4982079;28;19967;-69
2023/05/09 08:26:03;;;;;;;;;;;;;;;15.13;100.00;96453.66;5048674;28;20203;-69
2023/05/09 08:28:29;;;;;;;;;;;;;;;15.33;100.00;96445.97;4982046;28;19981;-70
2023/05/09 08:30:55;;;;;;;;;;;;;;;15.45;100.00;96445.81;4982099;28;20241;-69
2023/05/09 08:33:21;;;;;;;;;;;;;;;15.56;100.00;96442.25;4981432;28;19984;-84
2023/05/09 08:35:51;;;;;;;;;;;;;;;15.65;100.00;96445.25;4982033;28;20194;-79
2023/05/09 08:38:17;;;;;;;;;;;;;;;15.71;100.00;96438.16;4981857;28;20229;-70
2023/05/09 08:40:43;;;;;;;;;;;;;;;15.76;100.00;96431.09;4981942;28;19953;-71
2023/05/09 08:43:10;;;;;;;;;;;;;;;15.87;100.00;96431.19;4984656;28;20009;-70
2023/05/09 08:45:47;;;;;;;;;;;;;;;15.90;100.00;96425.41;4984878;28;20239;-71
2023/05/09 08:48:16;;;;;;;;;;;;;;;15.93;100.00;96428.31;4985279;28;19968;-71
2023/05/09 08:50:42;;;;;;;;;;;;;;;15.96;100.00;96422.53;4985015;28;20263;-71
2023/05/09 08:53:08;;;;;;;;;;;;;;;15.98;100.00;96424.91;4985211;28;19962;-73
2023/05/09 08:55:34;;;;;;;;;;;;;;;15.99;100.00;96427.31;4985029;28;19957;-74
2023/05/09 08:58:02;;;;;;;;;;;;;;;16.01;100.00;96429.72;4985074;28;19957;-74
2023/05/09 09:00:28;;;;;;;;;;;;;;;16.02;100.00;96418.88;4985013;28;20136;-76
2023/05/09 09:02:55;;;;;;;;;;;;;;;16.07;100.00;96404.91;4984758;28;19965;-74
2023/05/09 09:05:22;;;;;;;;;;;;;;;16.14;100.00;96410.75;4984847;28;19968;-75
2023/05/09 09:07:48;;;;;;;;;;;;;;;16.24;100.00;96415.31;4984763;28;19968;-75
2023/05/09 09:10:14;;;;;;;;;;;;;;;16.36;100.00;96415.94;4984532;28;20135;-80
2023/05/09 09:12:41;;;;;;;;;;;;;;;16.57;100.00;96408.91;4984589;28;19961;-74
2023/05/09 09:15:09;;;;;;;;;;;;;;;16.87;100.00;96407.50;4984608;28;19962;-73
2023/05/09 09:17:38;;;;;;;;;;;;;;;17.07;100.00;96396.16;4984665;28;20132;-73
2023/05/09 09:20:07;;;;;;;;;;;;;;;17.16;100.00;96394.63;4984640;28;19970;-73
2023/05/09 09:22:34;;;;;;;;;;;;;;;17.20;100.00;96387.72;4984417;28;19967;-73
2023/05/09 09:25:00;;;;;;;;;;;;;;;17.04;100.00;96359.59;4984628;28;19953;-73
2023/05/09 09:27:26;;;;;;;;;;;;;;;16.89;100.00;96378.91;5051253;28;19961;-73
2023/05/09 09:29:52;;;;;;;;;;;;;;;16.87;100.00;96381.00;4984149;28;19948;-77
2023/05/09 09:32:18;;;;;;;;;;;;;;;17.07;100.00;96372.31;4984304;28;19957;-84
2023/05/09 09:34:50;;;;;;;;;;;;;;;17.16;100.00;96362.81;4984992;28;19977;-83
2023/05/09 09:37:22;;;;;;;;;;;;;;;17.12;100.00;96363.59;4984695;28;20032;-84
2023/05/09 09:39:56;;;;;;;;;;;;;;;17.02;100.00;96364.38;4983775;28;20596;-84
2023/05/09 09:42:22;;;;;;;;;;;;;;;17.11;100.00;96348.75;4984181;28;19977;-84
2023/05/09 09:45:12;;;;;;;;;;;;;;;17.17;100.00;96340.53;4984316;28;19959;-84
2023/05/09 09:47:38;;;;;;;;;;;;;;;17.21;100.00;96346.91;4989037;28;19944;-73
2023/05/09 09:50:14;;;;;;;;;;;;;;;17.42;100.00;96339.00;4984278;28;19949;-82
2023/05/09 09:52:43;;;;;;;;;;;;;;;17.72;100.00;96332.88;4983874;28;19958;-83
2023/05/09 09:55:09;;;;;;;;;;;;;;;17.99;100.00;96324.69;4984276;28;19952;-83
2023/05/09 09:57:36;;;;;;;;;;;;;;;18.15;98.16;96304.22;4984649;28;19965;-84
2023/05/09 10:00:03;;;;;;;;;;;;;;;18.11;100.00;96329.72;4984019;28;19950;-84
2023/05/09 10:02:30;;;;;;;;;;;;;;;17.94;98.88;96302.69;4983755;28;19964;-84
2023/05/09 10:05:04;;;;;;;;;;;;;;;17.77;96.71;96293.13;4983949;28;19956;-71
2023/05/09 10:07:32;;;;;;;;;;;;;;;17.80;100.00;96299.75;4984120;28;19956;-73
2023/05/09 10:09:57;;;;;;;;;;;;;;;18.00;100.00;96307.69;4984200;28;19966;-70
2023/05/09 10:12:23;;;;;;;;;;;;;;;18.08;91.49;96249.81;4984024;28;19958;-71
2023/05/09 10:14:49;;;;;;;;;;;;;;;18.11;98.51;96287.25;4983863;28;19955;-71
2023/05/09 10:17:16;;;;;;;;;;;;;;;18.15;97.86;96275.03;4983391;28;19980;-70
2023/05/09 10:19:43;;;;;;;;;;;;;;;18.19;96.81;96268.13;4984054;28;19954;-70
2023/05/09 10:22:10;;;;;;;;;;;;;;;18.21;96.85;96271.28;4983764;28;19964;-70
2023/05/09 10:24:47;;;;;;;;;;;;;;;18.29;96.09;96272.59;4983789;28;19955;-74
2023/05/09 10:27:13;;;;;;;;;;;;;;;18.40;96.28;96263.53;4983728;28;19958;-74
2023/05/09 10:29:48;;;;;;;;;;;;;;;18.51;93.11;96247.56;4983497;28;19956;-74
2023/05/09 10:32:16;;;;;;;;;;;;;;;18.53;89.86;96232.13;4983545;28;20237;-74
2023/05/09 10:34:46;;;;;;;;;;;;;;;18.61;95.44;96266.88;4983624;28;19962;-74
2023/05/09 10:37:12;;;;;;;;;;;;;;;18.72;94.21;96258.84;4983479;28;19958;-74
2023/05/09 10:39:38;;;;;;;;;;;;;;;18.71;87.77;96212.09;4982950;28;19948;-74
2023/05/09 10:42:04;;;;;;;;;;;;;;;18.63;87.94;96208.19;4982894;28;19999;-74
2023/05/09 10:44:30;;;;;;;;;;;;;;;18.60;90.66;96229.97;4983492;28;19956;-72
2023/05/09 10:46:56;;;;;;;;;;;;;;;18.61;90.36;96218.28;4983620;28;20303;-73
2023/05/09 10:49:22;;;;;;;;;;;;;;;18.66;89.38;96218.25;4983093;28;20002;-71
2023/05/09 10:51:51;;;;;;;;;;;;;;;18.72;92.17;96221.66;4983046;28;20255;-71
2023/05/09 10:54:26;;;;;;;;;;;;;;;18.73;89.60;96213.44;4983048;28;20252;-72
2023/05/09 10:56:53;;;;;;;;;;;;;;;18.79;93.13;96227.50;4983236;28;19956;-71
2023/05/09 10:59:34;;;;;;;;;;;;;;;18.79;93.67;96225.66;4983192;28;20141;-72
2023/05/09 11:02:02;;;;;;;;;;;;;;;18.72;86.04;96177.31;4982269;28;19958;-72
2023/05/09 11:04:28;;;;;;;;;;;;;;;18.74;89.83;96191.09;4981858;28;20251;-74
2023/05/09 11:06:54;;;;;;;;;;;;;;;18.80;86.83;96163.47;4983191;28;20234;-75
2023/05/09 11:09:31;;;;;;;;;;;;;;;18.78;87.90;96172.75;5049771;28;19950;-75
2023/05/09 11:12:03;;;;;;;;;;;;;;;18.75;85.81;96162.66;4983289;28;19960;-75
2023/05/09 11:14:29;;;;;;;;;;;;;;;18.77;91.65;96193.22;4982906;28;19957;-74
2023/05/09 11:16:56;;;;;;;;;;;;;;;18.80;87.26;96165.34;4982725;28;20000;-77
2023/05/09 11:19:37;;;;;;;;;;;;;;;18.78;87.73;96157.63;4982682;28;19961;-72
2023/05/09 11:22:13;;;;;;;;;;;;;;;18.63;86.75;96157.72;4982835;28;19960;-77
2023/05/09 11:24:39;;;;;;;;;;;;;;;18.56;89.07;96152.72;4982364;28;19943;-77
2023/05/09 11:27:13;;;;;;;;;;;;;;;18.55;86.43;96151.13;4982438;28;19968;-76
2023/05/09 11:29:43;;;;;;;;;;;;;;;18.55;89.06;96158.31;4982619;28;19953;-75
2023/05/09 11:32:12;;;;;;;;;;;;;;;18.63;87.16;96142.56;4982479;28;19982;-75
2023/05/09 11:34:39;;;;;;;;;;;;;;;18.69;87.11;96146.00;4982506;28;19964;-74
2023/05/09 11:37:08;;;;;;;;;;;;;;;18.74;87.26;96139.84;4982728;28;19963;-75
2023/05/09 11:39:34;;;;;;;;;;;;;;;18.79;84.30;96115.91;4982533;28;19957;-70
2023/05/09 11:42:01;;;;;;;;;;;;;;;18.85;85.68;96112.94;4982611;28;20042;-72
2023/05/09 11:44:26;;;;;;;;;;;;;;;18.98;86.50;96116.84;4982694;28;19960;-74
2023/05/09 11:46:52;;;;;;;;;;;;;;;19.14;83.85;96101.53;4982608;28;19984;-75
2023/05/09 11:49:19;;;;;;;;;;;;;;;19.31;82.39;96084.34;4982560;28;19994;-74
2023/05/09 11:51:45;;;;;;;;;;;;;;;19.35;79.58;96058.78;4982125;28;19948;-74
2023/05/09 11:54:12;;;;;;;;;;;;;;;19.39;80.29;96055.25;4982825;28;19956;-74
2023/05/09 11:56:39;;;;;;;;;;;;;;;19.36;81.36;96070.97;4982591;28;19952;-82
2023/05/09 11:59:06;;;;;;;;;;;;;;;19.44;80.58;96065.03;4982581;28;19963;-69
2023/05/09 12:01:32;;;;;;;;;;;;;;;19.46;77.95;96039.78;4982048;28;19957;-70
2023/05/09 12:03:58;;;;;;;;;;;;;;;19.50;80.60;96050.63;4981944;28;19967;-70
2023/05/09 12:06:25;;;;;;;;;;;;;;;19.53;75.01;96014.66;4982167;28;20025;-70
2023/05/09 12:08:50;;;;;;;;;;;;;;;19.56;78.85;96033.53;4982507;28;20240;-70
2023/05/09 12:11:17;;;;;;;;;;;;;;;19.56;82.82;96054.81;4981823;28;19955;-70
2023/05/09 12:13:47;;;;;;;;;;;;;;;19.66;80.80;96045.91;4982173;28;19958;-71
2023/05/09 12:16:13;;;;;;;;;;;;;;;19.77;81.85;96039.41;4983841;28;20260;-75
2023/05/09 12:18:43;;;;;;;;;;;;;;;19.83;79.04;96019.63;4985053;28;19962;-69
2023/05/09 12:21:09;;;;;;;;;;;;;;;19.97;78.22;96008.25;4985206;28;19957;-70
2023/05/09 12:23:35;;;;;;;;;;;;;;;20.10;75.17;95980.94;4985748;28;19963;-70
2023/05/09 12:26:01;;;;;;;;;;;;;;;20.13;76.32;95984.88;4985240;28;19963;-70
2023/05/09 12:28:27;;;;;;;;;;;;;;;20.11;72.84;95955.88;4985588;28;19966;-70
2023/05/09 12:30:53;;;;;;;;;;;;;;;20.13;76.96;95979.56;4985231;28;20136;-70
2023/05/09 12:33:20;;;;;;;;;;;;;;;20.17;74.80;95962.69;4985255;28;19956;-77
2023/05/09 12:35:46;;;;;;;;;;;;;;;20.20;75.64;95964.78;4985291;28;19963;-77